Weather at Geelong Airport

Public forecast

Using degrees Celsius for public forecast. Weather courtesy of forecast.io.

Closest aviation weather report (METAR) to Geelong Airport

Closest report is Avalon Airport, 12.9 nm (23.8 km) NNE. Retrieved 2020/10/21 12:30 UTC (3 minutes ago):

YMAV 211230Z AUTO 16004KT 9999 // SCT040 BKN125 10/10 Q1017

Closest aviation forecast (TAF) to Geelong Airport

Closest forecast is Avalon Airport, 12.9 nm (23.8 km) NNE. Retrieved 2020/10/21 12:00 UTC (33 minutes ago):

TAF YMAV 211109Z 2112/2212 17006KT 9999 BKN035 BECMG 2114/2116 VRB03KT 9999 SCT015 BECMG 2122/2200 12006KT 9999 SCT025 FM220600 16010KT 9999 FEW030 TEMPO 2115/2123 9999 BKN012